sensor_id;sensor_type;location;lat;lon;timestamp;temperature;humidity
5200;DHT22;2619;47.868;11.892;2022-09-30T00:01:22;8.30;99.90
5200;DHT22;2619;47.868;11.892;2022-09-30T00:03:50;8.20;99.90
5200;DHT22;2619;47.868;11.892;2022-09-30T00:06:16;8.30;99.90
5200;DHT22;2619;47.868;11.892;2022-09-30T00:08:42;8.20;99.90
5200;DHT22;2619;47.868;11.892;2022-09-30T00:11:12;8.20;99.90
5200;DHT22;2619;47.868;11.892;2022-09-30T00:13:38;8.40;99.90
5200;DHT22;2619;47.868;11.892;2022-09-30T00:16:05;8.30;99.90
5200;DHT22;2619;47.868;11.892;2022-09-30T00:18:31;8.30;99.90
5200;DHT22;2619;47.868;11.892;2022-09-30T00:20:57;8.30;99.90
5200;DHT22;2619;47.868;11.892;2022-09-30T00:23:24;8.40;99.90
5200;DHT22;2619;47.868;11.892;2022-09-30T00:25:50;8.30;99.90
5200;DHT22;2619;47.868;11.892;2022-09-30T00:28:16;8.30;99.90
5200;DHT22;2619;47.868;11.892;2022-09-30T00:30:42;8.30;99.90
5200;DHT22;2619;47.868;11.892;2022-09-30T00:33:08;8.20;99.90
5200;DHT22;2619;47.868;11.892;2022-09-30T00:35:34;8.30;99.90
5200;DHT22;2619;47.868;11.892;2022-09-30T00:38:00;8.30;99.90
5200;DHT22;2619;47.868;11.892;2022-09-30T00:40:26;8.30;99.90
5200;DHT22;2619;47.868;11.892;2022-09-30T00:42:52;8.40;99.90
5200;DHT22;2619;47.868;11.892;2022-09-30T00:45:17;8.30;99.90
5200;DHT22;2619;47.868;11.892;2022-09-30T00:47:56;8.30;99.90
5200;DHT22;2619;47.868;11.892;2022-09-30T00:50:44;8.30;99.90
5200;DHT22;2619;47.868;11.892;2022-09-30T00:53:35;8.30;99.90
5200;DHT22;2619;47.868;11.892;2022-09-30T00:56:06;8.30;99.90
5200;DHT22;2619;47.868;11.892;2022-09-30T00:58:35;8.30;99.90
5200;DHT22;2619;47.868;11.892;2022-09-30T01:01:01;8.30;99.90
5200;DHT22;2619;47.868;11.892;2022-09-30T01:03:34;8.30;99.90
5200;DHT22;2619;47.868;11.892;2022-09-30T01:06:01;8.30;99.90
5200;DHT22;2619;47.868;11.892;2022-09-30T01:08:27;8.30;99.90
5200;DHT22;2619;47.868;11.892;2022-09-30T01:10:54;8.20;99.90
5200;DHT22;2619;47.868;11.892;2022-09-30T01:13:21;8.20;99.90
5200;DHT22;2619;47.868;11.892;2022-09-30T01:30:07;8.10;99.90
5200;DHT22;2619;47.868;11.892;2022-09-30T01:38:27;8.10;99.90
5200;DHT22;2619;47.868;11.892;2022-09-30T01:41:09;8.10;99.90
5200;DHT22;2619;47.868;11.892;2022-09-30T01:43:41;8.10;99.90
5200;DHT22;2619;47.868;11.892;2022-09-30T01:49:22;8.20;99.90
5200;DHT22;2619;47.868;11.892;2022-09-30T01:52:12;8.10;99.90
5200;DHT22;2619;47.868;11.892;2022-09-30T01:57:41;8.20;99.90
5200;DHT22;2619;47.868;11.892;2022-09-30T02:00:10;8.10;99.90
5200;DHT22;2619;47.868;11.892;2022-09-30T02:05:26;8.10;99.90
5200;DHT22;2619;47.868;11.892;2022-09-30T02:07:56;8.10;99.90
5200;DHT22;2619;47.868;11.892;2022-09-30T02:10:48;8.10;99.90
5200;DHT22;2619;47.868;11.892;2022-09-30T02:13:21;8.10;99.90
5200;DHT22;2619;47.868;11.892;2022-09-30T02:16:01;8.20;99.90
5200;DHT22;2619;47.868;11.892;2022-09-30T02:19:17;8.20;99.90
5200;DHT22;2619;47.868;11.892;2022-09-30T02:21:44;8.20;99.90
5200;DHT22;2619;47.868;11.892;2022-09-30T02:24:15;8.20;99.90
5200;DHT22;2619;47.868;11.892;2022-09-30T02:26:43;8.20;99.90
5200;DHT22;2619;47.868;11.892;2022-09-30T02:29:32;8.10;99.90
5200;DHT22;2619;47.868;11.892;2022-09-30T02:32:04;8.10;99.90
5200;DHT22;2619;47.868;11.892;2022-09-30T02:34:39;8.10;99.90
5200;DHT22;2619;47.868;11.892;2022-09-30T02:37:16;8.10;99.90
5200;DHT22;2619;47.868;11.892;2022-09-30T02:39:52;8.10;99.90
5200;DHT22;2619;47.868;11.892;2022-09-30T02:42:24;8.10;99.90
5200;DHT22;2619;47.868;11.892;2022-09-30T02:44:54;8.10;99.90
5200;DHT22;2619;47.868;11.892;2022-09-30T02:53:07;8.20;99.90
5200;DHT22;2619;47.868;11.892;2022-09-30T02:58:15;8.10;99.90
5200;DHT22;2619;47.868;11.892;2022-09-30T03:00:42;8.10;99.90
5200;DHT22;2619;47.868;11.892;2022-09-30T03:03:18;8.10;99.90
5200;DHT22;2619;47.868;11.892;2022-09-30T03:05:45;8.10;99.90
5200;DHT22;2619;47.868;11.892;2022-09-30T03:08:13;8.10;99.90
5200;DHT22;2619;47.868;11.892;2022-09-30T03:10:39;8.00;99.90
5200;DHT22;2619;47.868;11.892;2022-09-30T03:16:25;8.10;99.90
5200;DHT22;2619;47.868;11.892;2022-09-30T03:30:31;8.10;99.90
5200;DHT22;2619;47.868;11.892;2022-09-30T03:35:14;8.20;99.90
5200;DHT22;2619;47.868;11.892;2022-09-30T03:43:25;8.20;99.90
5200;DHT22;2619;47.868;11.892;2022-09-30T03:46:00;8.20;99.90
5200;DHT22;2619;47.868;11.892;2022-09-30T03:48:30;8.10;99.90
5200;DHT22;2619;47.868;11.892;2022-09-30T03:50:58;8.10;99.90
5200;DHT22;2619;47.868;11.892;2022-09-30T03:53:24;8.10;99.90
5200;DHT22;2619;47.868;11.892;2022-09-30T03:55:53;8.00;99.90
5200;DHT22;2619;47.868;11.892;2022-09-30T03:58:20;8.10;99.90
5200;DHT22;2619;47.868;11.892;2022-09-30T04:00:51;8.10;99.90
5200;DHT22;2619;47.868;11.892;2022-09-30T04:03:20;8.20;99.90
5200;DHT22;2619;47.868;11.892;2022-09-30T04:05:47;8.30;99.90
5200;DHT22;2619;47.868;11.892;2022-09-30T04:08:13;8.20;99.90
5200;DHT22;2619;47.868;11.892;2022-09-30T04:10:39;8.30;99.90
5200;DHT22;2619;47.868;11.892;2022-09-30T04:13:06;8.30;99.90
5200;DHT22;2619;47.868;11.892;2022-09-30T04:15:32;8.40;99.90
5200;DHT22;2619;47.868;11.892;2022-09-30T04:17:58;8.40;99.90
5200;DHT22;2619;47.868;11.892;2022-09-30T04:20:24;8.40;99.90
5200;DHT22;2619;47.868;11.892;2022-09-30T04:22:50;8.40;99.90
5200;DHT22;2619;47.868;11.892;2022-09-30T04:25:15;8.40;99.90
5200;DHT22;2619;47.868;11.892;2022-09-30T04:27:41;8.40;99.90
5200;DHT22;2619;47.868;11.892;2022-09-30T04:30:07;8.40;99.90
5200;DHT22;2619;47.868;11.892;2022-09-30T04:32:32;8.40;99.90
5200;DHT22;2619;47.868;11.892;2022-09-30T04:34:58;8.40;99.90
5200;DHT22;2619;47.868;11.892;2022-09-30T04:37:23;8.40;99.90
5200;DHT22;2619;47.868;11.892;2022-09-30T04:39:49;8.40;99.90
5200;DHT22;2619;47.868;11.892;2022-09-30T04:42:15;8.40;99.90
5200;DHT22;2619;47.868;11.892;2022-09-30T04:44:42;8.40;99.90
5200;DHT22;2619;47.868;11.892;2022-09-30T04:47:07;8.40;99.90
5200;DHT22;2619;47.868;11.892;2022-09-30T04:49:33;8.40;99.90
5200;DHT22;2619;47.868;11.892;2022-09-30T04:51:59;8.40;99.90
5200;DHT22;2619;47.868;11.892;2022-09-30T04:54:24;8.40;99.90
5200;DHT22;2619;47.868;11.892;2022-09-30T04:56:50;8.50;99.90
5200;DHT22;2619;47.868;11.892;2022-09-30T04:59:15;8.50;99.90
5200;DHT22;2619;47.868;11.892;2022-09-30T05:01:41;8.50;99.90
5200;DHT22;2619;47.868;11.892;2022-09-30T05:04:09;8.50;99.90
5200;DHT22;2619;47.868;11.892;2022-09-30T05:06:37;8.50;99.90
5200;DHT22;2619;47.868;11.892;2022-09-30T05:09:05;8.40;99.90
5200;DHT22;2619;47.868;11.892;2022-09-30T05:11:31;8.40;99.90
5200;DHT22;2619;47.868;11.892;2022-09-30T05:13:56;8.40;99.90
5200;DHT22;2619;47.868;11.892;2022-09-30T05:16:22;8.30;99.90
5200;DHT22;2619;47.868;11.892;2022-09-30T05:18:47;8.20;99.90
5200;DHT22;2619;47.868;11.892;2022-09-30T05:21:16;8.10;99.90
5200;DHT22;2619;47.868;11.892;2022-09-30T05:23:42;8.00;99.90
5200;DHT22;2619;47.868;11.892;2022-09-30T05:26:08;8.00;99.90
5200;DHT22;2619;47.868;11.892;2022-09-30T05:28:33;7.90;99.90
5200;DHT22;2619;47.868;11.892;2022-09-30T05:31:02;7.90;99.90
5200;DHT22;2619;47.868;11.892;2022-09-30T05:33:29;7.90;99.90
5200;DHT22;2619;47.868;11.892;2022-09-30T05:35:58;7.90;99.90
5200;DHT22;2619;47.868;11.892;2022-09-30T05:38:25;8.00;99.90
5200;DHT22;2619;47.868;11.892;2022-09-30T05:40:51;8.00;99.90
5200;DHT22;2619;47.868;11.892;2022-09-30T05:43:17;8.10;99.90
5200;DHT22;2619;47.868;11.892;2022-09-30T05:45:51;8.20;99.90
5200;DHT22;2619;47.868;11.892;2022-09-30T05:48:16;8.20;99.90
5200;DHT22;2619;47.868;11.892;2022-09-30T05:50:42;8.30;99.90
5200;DHT22;2619;47.868;11.892;2022-09-30T05:53:08;8.40;99.90
5200;DHT22;2619;47.868;11.892;2022-09-30T05:55:33;8.30;99.90
5200;DHT22;2619;47.868;11.892;2022-09-30T05:57:59;8.30;99.90
5200;DHT22;2619;47.868;11.892;2022-09-30T06:00:24;8.30;99.90
5200;DHT22;2619;47.868;11.892;2022-09-30T06:02:50;8.60;99.90
5200;DHT22;2619;47.868;11.892;2022-09-30T06:05:16;8.70;99.90
5200;DHT22;2619;47.868;11.892;2022-09-30T06:07:42;8.90;99.90
5200;DHT22;2619;47.868;11.892;2022-09-30T06:10:08;9.00;99.90
5200;DHT22;2619;47.868;11.892;2022-09-30T06:12:37;9.10;99.90
5200;DHT22;2619;47.868;11.892;2022-09-30T06:15:04;9.30;99.90
5200;DHT22;2619;47.868;11.892;2022-09-30T06:17:29;9.50;99.90
5200;DHT22;2619;47.868;11.892;2022-09-30T06:19:55;9.80;99.90
5200;DHT22;2619;47.868;11.892;2022-09-30T06:22:21;10.00;99.90
5200;DHT22;2619;47.868;11.892;2022-09-30T06:24:46;10.10;99.90
5200;DHT22;2619;47.868;11.892;2022-09-30T06:27:12;10.20;99.90
5200;DHT22;2619;47.868;11.892;2022-09-30T06:29:38;10.00;99.90
5200;DHT22;2619;47.868;11.892;2022-09-30T06:32:04;10.10;99.90
5200;DHT22;2619;47.868;11.892;2022-09-30T06:34:31;10.20;99.90
5200;DHT22;2619;47.868;11.892;2022-09-30T06:36:56;10.20;99.90
5200;DHT22;2619;47.868;11.892;2022-09-30T06:39:22;10.10;99.90
5200;DHT22;2619;47.868;11.892;2022-09-30T06:41:47;10.10;99.90
5200;DHT22;2619;47.868;11.892;2022-09-30T06:44:13;10.20;99.90
5200;DHT22;2619;47.868;11.892;2022-09-30T06:46:39;10.20;99.90
5200;DHT22;2619;47.868;11.892;2022-09-30T06:49:04;10.40;99.90
5200;DHT22;2619;47.868;11.892;2022-09-30T06:51:32;10.70;99.90
5200;DHT22;2619;47.868;11.892;2022-09-30T06:53:58;11.00;99.90
5200;DHT22;2619;47.868;11.892;2022-09-30T06:56:24;11.40;99.90
5200;DHT22;2619;47.868;11.892;2022-09-30T06:58:50;12.00;99.90
5200;DHT22;2619;47.868;11.892;2022-09-30T07:01:16;12.50;99.90
5200;DHT22;2619;47.868;11.892;2022-09-30T07:03:44;12.70;99.90
5200;DHT22;2619;47.868;11.892;2022-09-30T07:06:12;13.20;99.90
5200;DHT22;2619;47.868;11.892;2022-09-30T07:08:38;13.50;99.90
5200;DHT22;2619;47.868;11.892;2022-09-30T07:11:08;13.70;99.90
5200;DHT22;2619;47.868;11.892;2022-09-30T07:13:42;14.00;99.90
5200;DHT22;2619;47.868;11.892;2022-09-30T07:16:09;13.80;99.90
5200;DHT22;2619;47.868;11.892;2022-09-30T07:18:36;13.50;99.90
5200;DHT22;2619;47.868;11.892;2022-09-30T07:21:03;13.20;99.90
5200;DHT22;2619;47.868;11.892;2022-09-30T07:23:29;13.00;99.90
5200;DHT22;2619;47.868;11.892;2022-09-30T07:25:59;13.00;99.90
5200;DHT22;2619;47.868;11.892;2022-09-30T07:28:29;12.90;99.90
5200;DHT22;2619;47.868;11.892;2022-09-30T07:30:58;12.70;99.90
5200;DHT22;2619;47.868;11.892;2022-09-30T07:33:25;12.30;99.90
5200;DHT22;2619;47.868;11.892;2022-09-30T07:35:55;12.20;99.90
5200;DHT22;2619;47.868;11.892;2022-09-30T07:38:23;12.30;99.90
5200;DHT22;2619;47.868;11.892;2022-09-30T07:40:53;12.40;99.90
5200;DHT22;2619;47.868;11.892;2022-09-30T07:43:20;12.20;99.90
5200;DHT22;2619;47.868;11.892;2022-09-30T07:45:47;12.20;99.90
5200;DHT22;2619;47.868;11.892;2022-09-30T07:48:13;12.00;99.90
5200;DHT22;2619;47.868;11.892;2022-09-30T07:50:58;11.90;99.90
5200;DHT22;2619;47.868;11.892;2022-09-30T07:53:24;12.00;99.90
5200;DHT22;2619;47.868;11.892;2022-09-30T07:55:50;12.10;99.90
5200;DHT22;2619;47.868;11.892;2022-09-30T07:58:16;12.30;99.90
5200;DHT22;2619;47.868;11.892;2022-09-30T08:00:41;12.60;99.90
5200;DHT22;2619;47.868;11.892;2022-09-30T08:03:07;12.60;99.90
5200;DHT22;2619;47.868;11.892;2022-09-30T08:05:39;12.60;99.90
5200;DHT22;2619;47.868;11.892;2022-09-30T08:08:04;12.60;99.90
5200;DHT22;2619;47.868;11.892;2022-09-30T08:10:34;12.80;99.90
5200;DHT22;2619;47.868;11.892;2022-09-30T08:13:00;13.40;99.90
5200;DHT22;2619;47.868;11.892;2022-09-30T08:15:25;13.90;99.90
5200;DHT22;2619;47.868;11.892;2022-09-30T08:17:51;14.40;99.90
5200;DHT22;2619;47.868;11.892;2022-09-30T08:20:17;14.80;99.90
5200;DHT22;2619;47.868;11.892;2022-09-30T08:22:42;14.70;99.90
5200;DHT22;2619;47.868;11.892;2022-09-30T08:25:08;14.80;99.90
5200;DHT22;2619;47.868;11.892;2022-09-30T08:27:33;15.00;99.90
5200;DHT22;2619;47.868;11.892;2022-09-30T08:29:59;14.90;99.90
5200;DHT22;2619;47.868;11.892;2022-09-30T08:32:24;15.10;99.90
5200;DHT22;2619;47.868;11.892;2022-09-30T08:34:53;14.80;99.90
5200;DHT22;2619;47.868;11.892;2022-09-30T08:37:19;14.50;99.90
5200;DHT22;2619;47.868;11.892;2022-09-30T08:39:44;14.20;99.90
5200;DHT22;2619;47.868;11.892;2022-09-30T08:45:05;13.80;99.90
5200;DHT22;2619;47.868;11.892;2022-09-30T08:51:09;13.40;99.90
5200;DHT22;2619;47.868;11.892;2022-09-30T08:53:41;13.30;99.90
5200;DHT22;2619;47.868;11.892;2022-09-30T08:56:16;13.20;99.90
5200;DHT22;2619;47.868;11.892;2022-09-30T08:58:44;13.20;99.90
5200;DHT22;2619;47.868;11.892;2022-09-30T09:03:39;13.10;99.90
5200;DHT22;2619;47.868;11.892;2022-09-30T09:14:21;14.10;99.90
5200;DHT22;2619;47.868;11.892;2022-09-30T09:19:24;14.20;99.90
5200;DHT22;2619;47.868;11.892;2022-09-30T09:21:55;14.40;99.90
5200;DHT22;2619;47.868;11.892;2022-09-30T09:24:46;14.80;99.90
5200;DHT22;2619;47.868;11.892;2022-09-30T09:27:20;15.40;99.90
5200;DHT22;2619;47.868;11.892;2022-09-30T09:30:18;15.50;99.90
5200;DHT22;2619;47.868;11.892;2022-09-30T09:32:41;15.40;99.90
5200;DHT22;2619;47.868;11.892;2022-09-30T09:35:14;15.30;99.90
5200;DHT22;2619;47.868;11.892;2022-09-30T09:46:29;15.70;99.90
5200;DHT22;2619;47.868;11.892;2022-09-30T09:54:43;16.20;99.90
5200;DHT22;2619;47.868;11.892;2022-09-30T09:57:14;17.00;99.90
5200;DHT22;2619;47.868;11.892;2022-09-30T10:00:05;17.40;99.90
5200;DHT22;2619;47.868;11.892;2022-09-30T10:05:32;18.20;99.90
5200;DHT22;2619;47.868;11.892;2022-09-30T10:08:20;17.40;99.90
5200;DHT22;2619;47.868;11.892;2022-09-30T10:13:25;16.10;99.90
5200;DHT22;2619;47.868;11.892;2022-09-30T10:15:58;16.00;99.90
5200;DHT22;2619;47.868;11.892;2022-09-30T10:18:35;15.80;99.90
5200;DHT22;2619;47.868;11.892;2022-09-30T10:21:04;15.50;99.90
5200;DHT22;2619;47.868;11.892;2022-09-30T10:23:32;15.80;99.90
5200;DHT22;2619;47.868;11.892;2022-09-30T10:28:53;15.80;99.90
5200;DHT22;2619;47.868;11.892;2022-09-30T10:34:00;16.60;99.90
5200;DHT22;2619;47.868;11.892;2022-09-30T10:36:33;16.90;99.90
5200;DHT22;2619;47.868;11.892;2022-09-30T10:39:06;16.90;99.90
5200;DHT22;2619;47.868;11.892;2022-09-30T10:41:34;16.70;99.90
5200;DHT22;2619;47.868;11.892;2022-09-30T10:44:11;16.40;99.90
5200;DHT22;2619;47.868;11.892;2022-09-30T10:46:39;16.70;99.90
5200;DHT22;2619;47.868;11.892;2022-09-30T10:49:10;16.60;99.90
5200;DHT22;2619;47.868;11.892;2022-09-30T10:51:45;16.70;99.90
5200;DHT22;2619;47.868;11.892;2022-09-30T10:54:45;16.60;99.90
5200;DHT22;2619;47.868;11.892;2022-09-30T10:57:26;16.40;99.90
5200;DHT22;2619;47.868;11.892;2022-09-30T11:00:04;16.00;99.90
5200;DHT22;2619;47.868;11.892;2022-09-30T11:05:23;15.60;99.90
5200;DHT22;2619;47.868;11.892;2022-09-30T11:08:21;15.50;99.90
5200;DHT22;2619;47.868;11.892;2022-09-30T11:11:07;15.30;99.90
5200;DHT22;2619;47.868;11.892;2022-09-30T11:16:48;15.40;99.90
5200;DHT22;2619;47.868;11.892;2022-09-30T11:19:32;15.60;99.90
5200;DHT22;2619;47.868;11.892;2022-09-30T11:24:43;16.30;99.90
5200;DHT22;2619;47.868;11.892;2022-09-30T11:30:22;16.50;99.90
5200;DHT22;2619;47.868;11.892;2022-09-30T11:33:18;16.40;99.90
5200;DHT22;2619;47.868;11.892;2022-09-30T11:39:09;17.80;99.90
5200;DHT22;2619;47.868;11.892;2022-09-30T11:41:42;17.60;99.90
5200;DHT22;2619;47.868;11.892;2022-09-30T11:44:45;17.10;99.90
5200;DHT22;2619;47.868;11.892;2022-09-30T11:47:32;16.80;99.90
5200;DHT22;2619;47.868;11.892;2022-09-30T11:53:25;16.20;99.90
5200;DHT22;2619;47.868;11.892;2022-09-30T11:55:57;16.10;99.90
5200;DHT22;2619;47.868;11.892;2022-09-30T11:58:30;16.30;99.90
5200;DHT22;2619;47.868;11.892;2022-09-30T12:01:13;16.80;99.90
5200;DHT22;2619;47.868;11.892;2022-09-30T12:04:34;16.70;99.90
5200;DHT22;2619;47.868;11.892;2022-09-30T12:06:41;16.30;99.90
5200;DHT22;2619;47.868;11.892;2022-09-30T12:09:19;16.50;99.90
5200;DHT22;2619;47.868;11.892;2022-09-30T12:14:47;16.30;99.90
5200;DHT22;2619;47.868;11.892;2022-09-30T12:19:50;16.50;99.90
5200;DHT22;2619;47.868;11.892;2022-09-30T12:22:29;16.70;99.90
5200;DHT22;2619;47.868;11.892;2022-09-30T12:24:54;16.40;99.90
5200;DHT22;2619;47.868;11.892;2022-09-30T12:27:28;16.60;99.90
5200;DHT22;2619;47.868;11.892;2022-09-30T12:30:16;16.40;99.90
5200;DHT22;2619;47.868;11.892;2022-09-30T12:36:04;15.60;99.90
5200;DHT22;2619;47.868;11.892;2022-09-30T12:41:17;15.00;99.90
5200;DHT22;2619;47.868;11.892;2022-09-30T12:49:22;14.00;99.90
5200;DHT22;2619;47.868;11.892;2022-09-30T12:51:54;14.00;99.90
5200;DHT22;2619;47.868;11.892;2022-09-30T12:54:33;14.10;99.90
5200;DHT22;2619;47.868;11.892;2022-09-30T12:57:02;14.20;99.90
5200;DHT22;2619;47.868;11.892;2022-09-30T12:59:35;14.10;99.90
5200;DHT22;2619;47.868;11.892;2022-09-30T13:02:03;14.00;99.90
5200;DHT22;2619;47.868;11.892;2022-09-30T13:04:39;14.30;99.90
5200;DHT22;2619;47.868;11.892;2022-09-30T13:07:15;14.40;99.90
5200;DHT22;2619;47.868;11.892;2022-09-30T13:10:23;14.40;99.90
5200;DHT22;2619;47.868;11.892;2022-09-30T13:12:47;14.30;99.90
5200;DHT22;2619;47.868;11.892;2022-09-30T13:18:53;14.40;99.90
5200;DHT22;2619;47.868;11.892;2022-09-30T13:21:19;14.40;99.90
5200;DHT22;2619;47.868;11.892;2022-09-30T13:23:49;14.40;99.90
5200;DHT22;2619;47.868;11.892;2022-09-30T13:31:30;14.70;99.90
5200;DHT22;2619;47.868;11.892;2022-09-30T13:36:28;15.10;99.90
5200;DHT22;2619;47.868;11.892;2022-09-30T13:39:17;15.40;99.90
5200;DHT22;2619;47.868;11.892;2022-09-30T13:41:48;15.60;99.90
5200;DHT22;2619;47.868;11.892;2022-09-30T13:44:19;15.50;99.90
5200;DHT22;2619;47.868;11.892;2022-09-30T13:46:49;15.70;99.90
5200;DHT22;2619;47.868;11.892;2022-09-30T13:49:20;15.80;99.90
5200;DHT22;2619;47.868;11.892;2022-09-30T13:51:48;16.00;99.90
5200;DHT22;2619;47.868;11.892;2022-09-30T13:54:31;16.00;99.90
5200;DHT22;2619;47.868;11.892;2022-09-30T13:57:01;15.80;99.90
5200;DHT22;2619;47.868;11.892;2022-09-30T13:59:47;15.80;99.90
5200;DHT22;2619;47.868;11.892;2022-09-30T14:02:43;15.90;99.90
5200;DHT22;2619;47.868;11.892;2022-09-30T14:10:58;15.70;99.90
5200;DHT22;2619;47.868;11.892;2022-09-30T14:20:09;15.40;99.90
5200;DHT22;2619;47.868;11.892;2022-09-30T14:22:08;15.60;99.90
5200;DHT22;2619;47.868;11.892;2022-09-30T14:24:36;15.60;99.90
5200;DHT22;2619;47.868;11.892;2022-09-30T14:32:18;15.80;99.90
5200;DHT22;2619;47.868;11.892;2022-09-30T14:34:45;15.90;99.90
5200;DHT22;2619;47.868;11.892;2022-09-30T14:37:19;15.80;99.90
5200;DHT22;2619;47.868;11.892;2022-09-30T14:39:46;15.80;99.90
5200;DHT22;2619;47.868;11.892;2022-09-30T14:42:28;15.80;99.90
5200;DHT22;2619;47.868;11.892;2022-09-30T14:44:57;15.70;99.90
5200;DHT22;2619;47.868;11.892;2022-09-30T14:47:32;15.20;99.90
5200;DHT22;2619;47.868;11.892;2022-09-30T14:50:00;15.00;99.90
5200;DHT22;2619;47.868;11.892;2022-09-30T14:52:47;15.00;99.90
5200;DHT22;2619;47.868;11.892;2022-09-30T14:55:24;14.80;99.90
5200;DHT22;2619;47.868;11.892;2022-09-30T14:57:52;14.70;99.90
5200;DHT22;2619;47.868;11.892;2022-09-30T15:00:29;14.70;99.90
5200;DHT22;2619;47.868;11.892;2022-09-30T15:02:56;14.80;99.90
5200;DHT22;2619;47.868;11.892;2022-09-30T15:05:23;14.90;99.90
5200;DHT22;2619;47.868;11.892;2022-09-30T15:07:50;14.90;99.90
5200;DHT22;2619;47.868;11.892;2022-09-30T15:10:21;14.90;99.90
5200;DHT22;2619;47.868;11.892;2022-09-30T15:12:48;14.70;99.90
5200;DHT22;2619;47.868;11.892;2022-09-30T15:15:35;14.70;99.90
5200;DHT22;2619;47.868;11.892;2022-09-30T15:18:31;14.60;99.90
5200;DHT22;2619;47.868;11.892;2022-09-30T15:21:01;14.50;99.90
5200;DHT22;2619;47.868;11.892;2022-09-30T15:23:30;14.30;99.90
5200;DHT22;2619;47.868;11.892;2022-09-30T15:25:58;14.10;99.90
5200;DHT22;2619;47.868;11.892;2022-09-30T15:28:24;14.10;99.90
5200;DHT22;2619;47.868;11.892;2022-09-30T15:30:51;14.10;99.90
5200;DHT22;2619;47.868;11.892;2022-09-30T15:33:21;14.10;99.90
5200;DHT22;2619;47.868;11.892;2022-09-30T15:35:49;14.20;99.90
5200;DHT22;2619;47.868;11.892;2022-09-30T15:38:24;14.30;99.90
5200;DHT22;2619;47.868;11.892;2022-09-30T15:40:56;14.30;99.90
5200;DHT22;2619;47.868;11.892;2022-09-30T15:43:35;14.20;99.90
5200;DHT22;2619;47.868;11.892;2022-09-30T15:46:29;14.20;99.90
5200;DHT22;2619;47.868;11.892;2022-09-30T15:49:00;14.20;99.90
5200;DHT22;2619;47.868;11.892;2022-09-30T15:51:38;14.20;99.90
5200;DHT22;2619;47.868;11.892;2022-09-30T15:56:39;14.20;99.90
5200;DHT22;2619;47.868;11.892;2022-09-30T16:01:42;14.00;99.90
5200;DHT22;2619;47.868;11.892;2022-09-30T16:04:09;13.90;99.90
5200;DHT22;2619;47.868;11.892;2022-09-30T16:06:51;13.80;99.90
5200;DHT22;2619;47.868;11.892;2022-09-30T16:11:55;13.60;99.90
5200;DHT22;2619;47.868;11.892;2022-09-30T16:14:26;13.50;99.90
5200;DHT22;2619;47.868;11.892;2022-09-30T16:16:56;13.60;99.90
5200;DHT22;2619;47.868;11.892;2022-09-30T16:19:22;13.70;99.90
5200;DHT22;2619;47.868;11.892;2022-09-30T16:21:52;13.70;99.90
5200;DHT22;2619;47.868;11.892;2022-09-30T16:26:54;13.60;99.90
5200;DHT22;2619;47.868;11.892;2022-09-30T16:29:21;13.60;99.90
5200;DHT22;2619;47.868;11.892;2022-09-30T16:31:49;13.50;99.90
5200;DHT22;2619;47.868;11.892;2022-09-30T16:36:48;13.40;99.90
5200;DHT22;2619;47.868;11.892;2022-09-30T16:39:16;13.30;99.90
5200;DHT22;2619;47.868;11.892;2022-09-30T16:41:42;13.30;99.90
5200;DHT22;2619;47.868;11.892;2022-09-30T16:44:08;13.20;99.90
5200;DHT22;2619;47.868;11.892;2022-09-30T16:46:34;13.20;99.90
5200;DHT22;2619;47.868;11.892;2022-09-30T16:49:10;13.10;99.90
5200;DHT22;2619;47.868;11.892;2022-09-30T16:51:37;13.10;99.90
5200;DHT22;2619;47.868;11.892;2022-09-30T16:54:02;13.00;99.90
5200;DHT22;2619;47.868;11.892;2022-09-30T16:56:29;12.90;99.90
5200;DHT22;2619;47.868;11.892;2022-09-30T16:58:55;12.80;99.90
5200;DHT22;2619;47.868;11.892;2022-09-30T17:01:23;12.70;99.90
5200;DHT22;2619;47.868;11.892;2022-09-30T17:03:49;12.60;99.90
5200;DHT22;2619;47.868;11.892;2022-09-30T17:06:17;12.50;99.90
5200;DHT22;2619;47.868;11.892;2022-09-30T17:08:43;12.40;99.90
5200;DHT22;2619;47.868;11.892;2022-09-30T17:11:09;12.40;99.90
5200;DHT22;2619;47.868;11.892;2022-09-30T17:13:35;12.40;99.90
5200;DHT22;2619;47.868;11.892;2022-09-30T17:16:01;12.40;99.90
5200;DHT22;2619;47.868;11.892;2022-09-30T17:18:27;12.30;99.90
5200;DHT22;2619;47.868;11.892;2022-09-30T17:20:53;12.20;99.90
5200;DHT22;2619;47.868;11.892;2022-09-30T17:23:20;12.20;99.90
5200;DHT22;2619;47.868;11.892;2022-09-30T17:25:46;12.20;99.90
5200;DHT22;2619;47.868;11.892;2022-09-30T17:28:13;12.10;99.90
5200;DHT22;2619;47.868;11.892;2022-09-30T17:30:39;12.10;99.90
5200;DHT22;2619;47.868;11.892;2022-09-30T17:33:07;12.10;99.90
5200;DHT22;2619;47.868;11.892;2022-09-30T17:35:37;12.10;99.90
5200;DHT22;2619;47.868;11.892;2022-09-30T17:38:08;12.10;99.90
5200;DHT22;2619;47.868;11.892;2022-09-30T17:40:35;12.10;99.90
5200;DHT22;2619;47.868;11.892;2022-09-30T17:43:19;12.00;99.90
5200;DHT22;2619;47.868;11.892;2022-09-30T17:45:46;11.90;99.90
5200;DHT22;2619;47.868;11.892;2022-09-30T17:48:13;12.00;99.90
5200;DHT22;2619;47.868;11.892;2022-09-30T17:50:40;12.00;99.90
5200;DHT22;2619;47.868;11.892;2022-09-30T17:53:10;11.90;99.90
5200;DHT22;2619;47.868;11.892;2022-09-30T17:55:41;12.00;99.90
5200;DHT22;2619;47.868;11.892;2022-09-30T17:58:08;12.00;99.90
5200;DHT22;2619;47.868;11.892;2022-09-30T18:00:34;12.00;99.90
5200;DHT22;2619;47.868;11.892;2022-09-30T18:03:01;11.90;99.90
5200;DHT22;2619;47.868;11.892;2022-09-30T18:05:27;11.90;99.90
5200;DHT22;2619;47.868;11.892;2022-09-30T18:07:53;11.90;99.90
5200;DHT22;2619;47.868;11.892;2022-09-30T18:10:19;11.90;99.90
5200;DHT22;2619;47.868;11.892;2022-09-30T18:12:45;11.90;99.90
5200;DHT22;2619;47.868;11.892;2022-09-30T18:15:14;11.90;99.90
5200;DHT22;2619;47.868;11.892;2022-09-30T18:17:41;11.80;99.90
5200;DHT22;2619;47.868;11.892;2022-09-30T18:20:07;11.90;99.90
5200;DHT22;2619;47.868;11.892;2022-09-30T18:22:32;11.90;99.90
5200;DHT22;2619;47.868;11.892;2022-09-30T18:24:58;11.90;99.90
5200;DHT22;2619;47.868;11.892;2022-09-30T18:27:42;11.80;99.90
5200;DHT22;2619;47.868;11.892;2022-09-30T18:30:08;11.80;99.90
5200;DHT22;2619;47.868;11.892;2022-09-30T18:32:34;11.80;99.90
5200;DHT22;2619;47.868;11.892;2022-09-30T18:35:00;11.80;99.90
5200;DHT22;2619;47.868;11.892;2022-09-30T18:37:27;11.70;99.90
5200;DHT22;2619;47.868;11.892;2022-09-30T18:39:53;11.60;99.90
5200;DHT22;2619;47.868;11.892;2022-09-30T18:42:18;11.70;99.90
5200;DHT22;2619;47.868;11.892;2022-09-30T18:44:45;11.70;99.90
5200;DHT22;2619;47.868;11.892;2022-09-30T18:47:11;11.70;99.90
5200;DHT22;2619;47.868;11.892;2022-09-30T18:49:36;11.70;99.90
5200;DHT22;2619;47.868;11.892;2022-09-30T18:52:02;11.60;99.90
5200;DHT22;2619;47.868;11.892;2022-09-30T18:54:29;11.50;99.90
5200;DHT22;2619;47.868;11.892;2022-09-30T18:56:55;11.50;99.90
5200;DHT22;2619;47.868;11.892;2022-09-30T18:59:20;11.60;99.90
5200;DHT22;2619;47.868;11.892;2022-09-30T19:01:46;11.50;99.90
5200;DHT22;2619;47.868;11.892;2022-09-30T19:04:12;11.60;99.90
5200;DHT22;2619;47.868;11.892;2022-09-30T19:06:40;11.60;99.90
5200;DHT22;2619;47.868;11.892;2022-09-30T19:09:06;11.60;99.90
5200;DHT22;2619;47.868;11.892;2022-09-30T19:11:35;11.70;99.90
5200;DHT22;2619;47.868;11.892;2022-09-30T19:14:02;11.60;99.90